首页
METAR-TAF:

METAR-TAF

机场 :

墨爾本, 佛罗里达州, 美国

纬度: 28-06-10N, 经度: 080-38-45W, 海拔: 10米

当前天气观测

该预报发布于51分钟前的22:53 UTC
风速11节,风向东转东南
温度 29°C
湿度 74%
气压 1016 hPa
能見度: 16.1公里
少量云层高于2000英尺

METAR: KMLB 152253Z 12011KT 10SM FEW020 29/24 A3001 RMK AO2 SLP161 T02940239

时间: 19:44 (23:44 UTC)

预报

该预报发布于6小时和5分钟前的17:39 UTC
预报有效从15日的 18点(UTC)到 16日的 18点(UTC)
风速8节,风向
能見度: 10公里
散云层高于4000英尺, 积雨云.
散云层高于12000英尺
多云层高于25000英尺
附近有雷暴
从 15日的 2100点(UTC)
风速10节,风向东转东南
能見度: 10公里
少量云层高于4000英尺
多云层高于25000英尺
从 16日的 0000点(UTC)
风速6节,风向南转南东
能見度: 10公里
少量云层高于4000英尺
散云层高于12000英尺
多云层高于25000英尺
从 16日的 0400点(UTC)
风速3节,风向
能見度: 10公里
少量云层高于4000英尺
多云层高于25000英尺
从 16日的 1600点(UTC)
风速8节,风向东转东南
能見度: 10公里
少量云层高于3500英尺
散云层高于25000英尺

TAF: KMLB 151739Z 1518/1618 10008KT P6SM VCTS SCT040CB SCT120 BKN250 FM152100 11010KT P6SM FEW040 BKN250 FM160000 15006KT P6SM FEW040 SCT120 BKN250 FM160400 18003KT P6SM FEW040 BKN250 FM161600 12008KT P6SM FEW035 SCT250

超过4000个机场的气象观测和天气预报(METAR&TAF报告)。

可查询的气象台以黄色和红色小点在地图上表示。

将鼠标移到小点上方,可查看气象台名称。

然后点击查看天气观测和预报。

如需切换地图:点击带黑十字的绿色按钮放大地图;点击带横线的绿色按钮缩小地图;或者点击绿色箭头查看邻近地区的地图。


METAR-TAF: